createdAt,value
2022-08-11T00:00:38.810Z,102288.38
2022-08-11T00:03:47.069Z,102285.00
2022-08-11T00:06:52.210Z,102288.91
2022-08-11T00:09:58.174Z,102293.69
2022-08-11T00:13:07.629Z,102292.25
2022-08-11T00:16:15.079Z,102288.63
2022-08-11T00:20:11.994Z,102291.69
2022-08-11T00:22:48.760Z,102282.69
2022-08-11T00:25:55.114Z,102281.03
2022-08-11T00:29:10.248Z,102273.72
2022-08-11T00:32:15.934Z,102276.78
2022-08-11T00:35:54.975Z,102280.69
2022-08-11T00:38:52.872Z,102283.75
2022-08-11T00:42:11.968Z,102279.84
2022-08-11T00:45:26.796Z,102274.25
2022-08-11T00:48:37.352Z,102272.81
2022-08-11T00:52:09.705Z,102270.84
2022-08-11T00:56:01.353Z,102273.91
2022-08-11T00:59:38.960Z,102275.88
2022-08-11T01:03:13.098Z,102278.13
2022-08-11T01:06:49.546Z,102284.84
2022-08-11T01:10:09.970Z,102289.59
2022-08-11T01:13:33.128Z,102292.66
2022-08-11T01:17:10.861Z,102290.97
2022-08-11T01:20:50.162Z,102285.63
2022-08-11T01:24:29.787Z,102281.13
2022-08-11T01:28:14.920Z,102287.84
2022-08-11T01:32:02.354Z,102281.41
2022-08-11T01:35:35.426Z,102285.56
2022-08-11T01:39:18.360Z,102285.00
2022-08-11T01:43:15.516Z,102278.81
2022-08-11T01:46:27.852Z,102289.19
2022-08-11T01:50:07.577Z,102285.81
2022-08-11T01:53:13.955Z,102283.00
2022-08-11T01:56:33.703Z,102284.09
2022-08-11T01:59:48.837Z,102284.66
2022-08-11T02:03:02.493Z,102283.78
2022-08-11T02:06:30.197Z,102275.38
2022-08-11T02:09:55.405Z,102286.00
2022-08-11T02:13:07.787Z,102278.44
2022-08-11T02:16:30.945Z,102277.88
2022-08-11T02:20:01.159Z,102273.63
2022-08-11T02:24:04.509Z,102272.81
2022-08-11T02:27:06.229Z,102271.09
2022-08-11T02:30:15.381Z,102276.13
2022-08-11T02:33:24.581Z,102273.34
2022-08-11T02:36:39.588Z,102271.63
2022-08-11T02:40:04.647Z,102269.94
2022-08-11T02:43:28.483Z,102273.88
2022-08-11T02:46:46.792Z,102266.56
2022-08-11T02:50:07.492Z,102268.78
2022-08-11T02:53:18.174Z,102261.50
2022-08-11T02:56:38.152Z,102268.47
2022-08-11T02:59:54.209Z,102268.47
2022-08-11T03:03:17.379Z,102266.75
2022-08-11T03:06:31.039Z,102269.81
2022-08-11T03:09:48.042Z,102272.03
2022-08-11T03:13:22.748Z,102270.31
2022-08-11T03:16:46.209Z,102267.78
2022-08-11T03:20:07.296Z,102265.25
2022-08-11T03:23:20.625Z,102263.53
2022-08-11T03:26:30.952Z,102269.41
2022-08-11T03:29:39.092Z,102269.69
2022-08-11T03:33:37.676Z,102273.63
2022-08-11T03:37:17.872Z,102274.72
2022-08-11T03:40:58.612Z,102270.22
2022-08-11T03:44:14.370Z,102268.53
2022-08-11T03:47:55.370Z,102258.69
2022-08-11T03:51:09.195Z,102260.63
2022-08-11T03:54:24.011Z,102260.91
2022-08-11T03:57:51.817Z,102261.16
2022-08-11T04:01:20.485Z,102272.38
2022-08-11T04:05:01.699Z,102274.34
2022-08-11T04:08:34.258Z,102271.78
2022-08-11T04:12:00.576Z,102271.19
2022-08-11T04:16:12.037Z,102272.31
2022-08-11T04:19:54.054Z,102268.91
2022-08-11T04:24:34.440Z,102275.66
2022-08-11T04:27:36.925Z,102270.31
2022-08-11T04:30:59.903Z,102273.59
2022-08-11T04:34:46.101Z,102272.78
2022-08-11T04:38:15.301Z,102277.81
2022-08-11T04:42:06.145Z,102267.69
2022-08-11T04:45:41.911Z,102267.13
2022-08-11T04:49:48.769Z,102265.44
2022-08-11T04:53:31.480Z,102268.75
2022-08-11T04:56:57.807Z,102265.34
2022-08-11T05:00:23.798Z,102264.78
2022-08-11T05:04:05.080Z,102263.94
2022-08-11T05:07:34.553Z,102272.59
2022-08-11T05:10:53.312Z,102263.34
2022-08-11T05:14:41.675Z,102265.28
2022-08-11T05:18:11.568Z,102262.75
2022-08-11T05:21:44.974Z,102267.50
2022-08-11T05:25:10.937Z,102265.81
2022-08-11T05:28:39.291Z,102265.81
2022-08-11T05:32:08.528Z,102263.84
2022-08-11T05:35:59.678Z,102269.72
2022-08-11T05:38:56.106Z,102271.69
2022-08-11T05:42:20.901Z,102266.34
2022-08-11T05:46:03.999Z,102268.03
2022-08-11T05:49:29.693Z,102269.72
2022-08-11T05:52:56.712Z,102268.63
2022-08-11T05:56:19.109Z,102269.84
2022-08-11T05:59:24.846Z,102262.94
2022-08-11T06:02:31.156Z,102271.28
2022-08-11T06:05:43.528Z,102257.59
2022-08-11T06:08:48.497Z,102269.28
2022-08-11T06:11:53.448Z,102267.19
2022-08-11T06:14:59.658Z,102267.28
2022-08-11T06:18:04.623Z,102266.69
2022-08-11T06:21:13.278Z,102268.53
2022-08-11T06:24:17.893Z,102275.25
2022-08-11T06:27:23.600Z,102273.81
2022-08-11T06:30:36.342Z,102276.22
2022-08-11T06:33:49.398Z,102268.28
2022-08-11T06:37:01.049Z,102265.47
2022-08-11T06:40:10.434Z,102263.19
2022-08-11T06:43:19.985Z,102261.19
2022-08-11T06:46:29.892Z,102275.72
2022-08-11T06:49:54.041Z,102273.75
2022-08-11T06:52:59.566Z,102266.66
2022-08-11T06:56:21.930Z,102255.91
2022-08-11T06:59:44.486Z,102258.59
2022-08-11T07:02:53.345Z,102258.22
2022-08-11T07:06:03.430Z,102262.81
2022-08-11T07:09:52.036Z,102264.78
2022-08-11T07:13:38.386Z,102260.44
2022-08-11T07:16:43.827Z,102268.13
2022-08-11T07:20:06.899Z,102268.00
2022-08-11T07:23:29.395Z,102269.03
2022-08-11T07:26:52.602Z,102257.75
2022-08-11T07:29:59.476Z,102261.06
2022-08-11T07:33:06.053Z,102258.22
2022-08-11T07:36:13.240Z,102260.44
2022-08-11T07:39:22.122Z,102257.63
2022-08-11T07:42:31.600Z,102254.84
2022-08-11T07:45:53.223Z,102255.38
2022-08-11T07:49:16.263Z,102257.06
2022-08-11T07:52:34.151Z,102259.88
2022-08-11T07:55:50.303Z,102258.78
2022-08-11T07:59:14.719Z,102256.53
2022-08-11T08:02:38.836Z,102263.84
2022-08-11T08:06:01.481Z,102257.38
2022-08-11T08:09:25.096Z,102268.59
2022-08-11T08:12:47.919Z,102260.44
2022-08-11T08:16:11.991Z,102270.19
2022-08-11T08:19:18.559Z,102256.97
2022-08-11T08:22:38.860Z,102265.91
2022-08-11T08:25:45.432Z,102267.56
2022-08-11T08:28:49.746Z,102263.59
2022-08-11T08:31:56.655Z,102264.72
2022-08-11T08:35:02.705Z,102263.59
2022-08-11T08:38:06.664Z,102267.53
2022-08-11T08:41:13.404Z,102259.13
2022-08-11T08:44:40.896Z,102267.53
2022-08-11T08:47:53.517Z,102263.03
2022-08-11T08:51:22.363Z,102254.63
2022-08-11T08:54:34.079Z,102258.59
2022-08-11T08:57:40.266Z,102250.72
2022-08-11T09:00:47.427Z,102246.22
2022-08-11T09:04:05.099Z,102233.63
2022-08-11T09:07:15.583Z,102234.75
2022-08-11T09:10:21.503Z,102226.06
2022-08-11T09:13:25.389Z,102228.59
2022-08-11T09:16:29.711Z,102230.03
2022-08-11T09:19:35.524Z,102233.69
2022-08-11T09:26:41.820Z,102226.41
2022-08-11T09:29:45.812Z,102228.94
2022-08-11T09:32:49.858Z,102226.13
2022-08-11T09:35:55.488Z,102219.16
2022-08-11T09:39:18.825Z,102221.72
2022-08-11T09:42:45.511Z,102218.38
2022-08-11T09:45:51.662Z,102204.06
2022-08-11T09:49:00.179Z,102209.41
2022-08-11T09:52:09.484Z,102212.81
2022-08-11T09:55:15.903Z,102203.28
2022-08-11T09:58:35.179Z,102195.69
2022-08-11T10:01:49.289Z,102189.53
2022-08-11T10:05:17.518Z,102188.44
2022-08-11T10:08:26.952Z,102185.34
2022-08-11T10:11:31.243Z,102176.66
2022-08-11T10:14:56.108Z,102174.69
2022-08-11T10:18:22.125Z,102168.81
2022-08-11T10:21:30.122Z,102159.28
2022-08-11T10:24:53.194Z,102164.06
2022-08-11T10:28:28.711Z,102159.56
2022-08-11T10:31:57.987Z,102148.34
2022-08-11T10:35:07.251Z,102149.50
2022-08-11T10:38:12.585Z,102136.88
2022-08-11T10:41:35.397Z,102141.13
2022-08-11T10:44:45.572Z,102134.94
2022-08-11T10:47:49.755Z,102138.31
2022-08-11T10:51:50.886Z,102132.41
2022-08-11T10:55:06.066Z,102129.06
2022-08-11T10:58:29.935Z,102124.31
2022-08-11T11:01:36.531Z,102127.69
2022-08-11T11:04:54.236Z,102132.75
2022-08-11T11:08:32.964Z,102127.13
2022-08-11T11:12:08.758Z,102124.88
2022-08-11T11:15:33.091Z,102118.69
2022-08-11T11:18:38.830Z,102122.91
2022-08-11T11:21:43.366Z,102128.78
2022-08-11T11:24:58.903Z,102118.94
2022-08-11T11:28:20.182Z,102112.50
2022-08-11T11:31:33.399Z,102113.06
2022-08-11T11:35:12.714Z,102117.81
2022-08-11T11:38:18.244Z,102119.22
2022-08-11T11:41:27.894Z,102110.22
2022-08-11T11:44:33.176Z,102106.56
2022-08-11T11:47:39.325Z,102112.47
2022-08-11T11:50:44.190Z,102105.16
2022-08-11T11:53:49.388Z,102106.25
2022-08-11T11:56:55.299Z,102104.31
2022-08-11T12:00:16.783Z,102106.81
2022-08-11T12:03:23.309Z,102105.72
2022-08-11T12:06:28.740Z,102109.63
2022-08-11T12:09:32.916Z,102109.34
2022-08-11T12:12:54.500Z,102101.19
2022-08-11T12:16:31.875Z,102098.41
2022-08-11T12:19:35.495Z,102096.19
2022-08-11T12:22:57.973Z,102083.25
2022-08-11T12:26:27.636Z,102083.25
2022-08-11T12:29:32.085Z,102077.66
2022-08-11T12:32:39.338Z,102072.03
2022-08-11T12:35:58.887Z,102072.59
2022-08-11T12:39:23.366Z,102057.19
2022-08-11T12:42:55.277Z,102063.09
2022-08-11T12:46:03.483Z,102058.00
2022-08-11T12:49:31.057Z,102053.28
2022-08-11T12:52:44.886Z,102056.09
2022-08-11T12:56:08.957Z,102052.19
2022-08-11T12:59:30.465Z,102042.38
2022-08-11T13:02:52.841Z,102043.78
2022-08-11T13:05:58.827Z,102035.91
2022-08-11T13:09:05.634Z,102036.22
2022-08-11T13:12:28.101Z,102043.50
2022-08-11T13:15:32.814Z,102031.44
2022-08-11T13:18:39.086Z,102025.00
2022-08-11T13:22:03.288Z,102035.63
2022-08-11T13:25:10.082Z,102022.72
2022-08-11T13:28:21.338Z,102030.59
2022-08-11T13:31:25.226Z,102023.00
2022-08-11T13:34:31.461Z,102009.81
2022-08-11T13:38:18.475Z,102017.13
2022-08-11T13:41:02.038Z,102013.19
2022-08-11T13:44:06.590Z,102012.06
2022-08-11T13:47:14.212Z,102016.53
2022-08-11T13:50:18.645Z,102017.66
2022-08-11T13:53:24.006Z,102010.91
2022-08-11T13:56:39.850Z,102009.78
2022-08-11T13:59:52.376Z,102001.38
2022-08-11T14:02:58.473Z,102007.53
2022-08-11T14:06:04.890Z,101995.19
2022-08-11T14:09:10.978Z,101986.19
2022-08-11T14:12:40.189Z,101978.31
2022-08-11T14:15:46.868Z,101985.06
2022-08-11T14:18:55.163Z,101987.28
2022-08-11T14:22:08.716Z,101979.97
2022-08-11T14:25:15.242Z,101977.75
2022-08-11T14:28:35.174Z,101973.28
2022-08-11T14:31:46.695Z,101973.28
2022-08-11T14:34:51.442Z,101975.50
2022-08-11T14:37:56.879Z,101965.38
2022-08-11T14:41:18.171Z,101965.66
2022-08-11T14:44:41.817Z,101964.81
2022-08-11T14:47:49.757Z,101966.53
2022-08-11T14:50:54.635Z,101955.25
2022-08-11T14:54:21.395Z,101960.91
2022-08-11T14:57:54.323Z,101955.88
2022-08-11T15:00:55.435Z,101961.50
2022-08-11T15:04:34.060Z,101958.09
2022-08-11T15:07:29.976Z,101954.47
2022-08-11T15:10:34.096Z,101950.81
2022-08-11T15:13:39.091Z,101954.75
2022-08-11T15:17:04.569Z,101942.69
2022-08-11T15:20:30.749Z,101932.59
2022-08-11T15:23:52.119Z,101928.91
2022-08-11T15:27:15.184Z,101931.16
2022-08-11T15:30:36.632Z,101931.16
2022-08-11T15:34:01.943Z,101927.25
2022-08-11T15:37:30.980Z,101927.25
2022-08-11T15:40:57.912Z,101925.56
2022-08-11T15:44:38.733Z,101918.84
2022-08-11T15:47:58.496Z,101912.38
2022-08-11T15:51:15.277Z,101913.22
2022-08-11T15:54:24.590Z,101912.09
2022-08-11T15:57:46.285Z,101913.22
2022-08-11T16:01:09.528Z,101908.16
2022-08-11T16:04:17.383Z,101907.59
2022-08-11T16:07:27.193Z,101909.31
2022-08-11T16:10:33.114Z,101897.25
2022-08-11T16:13:56.480Z,101900.88
2022-08-11T16:17:01.544Z,101912.66
2022-08-11T16:20:09.220Z,101902.31
2022-08-11T16:23:16.554Z,101899.22
2022-08-11T16:27:10.383Z,101902.03
2022-08-11T16:29:51.645Z,101894.44
2022-08-11T16:32:57.100Z,101895.31
2022-08-11T16:36:19.014Z,101904.81
2022-08-11T16:39:24.942Z,101898.09
2022-08-11T16:43:08.743Z,101902.59
2022-08-11T16:46:29.877Z,101898.66
2022-08-11T16:49:36.205Z,101895.84
2022-08-11T16:52:40.038Z,101885.47
2022-08-11T16:55:52.764Z,101898.38
2022-08-11T16:59:17.836Z,101899.22
2022-08-11T17:02:39.285Z,101885.75
2022-08-11T17:06:05.700Z,101893.06
2022-08-11T17:09:29.623Z,101881.81
2022-08-11T17:12:57.372Z,101887.41
2022-08-11T17:16:10.934Z,101885.19
2022-08-11T17:19:19.859Z,101884.34
2022-08-11T17:23:02.106Z,101883.53
2022-08-11T17:26:06.483Z,101882.38
2022-08-11T17:29:12.339Z,101886.03
2022-08-11T17:32:56.141Z,101890.78
2022-08-11T17:36:01.930Z,101898.09
2022-08-11T17:39:05.904Z,101886.88
2022-08-11T17:42:28.326Z,101892.47
2022-08-11T17:45:52.247Z,101888.56
2022-08-11T17:48:58.248Z,101890.25
2022-08-11T17:52:19.523Z,101896.41
2022-08-11T17:55:51.970Z,101890.22
2022-08-11T17:59:17.227Z,101897.53
2022-08-11T18:02:42.130Z,101895.56
2022-08-11T18:05:49.256Z,101896.41
2022-08-11T18:09:12.049Z,101902.03
2022-08-11T18:12:33.798Z,101898.66
2022-08-11T18:15:57.532Z,101902.03
2022-08-11T18:19:24.593Z,101898.94
2022-08-11T18:22:50.359Z,101910.44
2022-08-11T18:26:13.494Z,101918.03
2022-08-11T18:29:42.139Z,101917.75
2022-08-11T18:33:44.937Z,101915.22
2022-08-11T18:36:54.608Z,101917.19
2022-08-11T18:40:20.853Z,101922.22
2022-08-11T18:43:44.425Z,101925.59
2022-08-11T18:47:08.838Z,101921.94
2022-08-11T18:50:39.428Z,101931.19
2022-08-11T18:54:07.539Z,101921.66
2022-08-11T18:57:32.109Z,101936.25
2022-08-11T19:00:59.838Z,101936.81
2022-08-11T19:04:24.599Z,101942.97
2022-08-11T19:07:53.339Z,101943.25
2022-08-11T19:11:16.517Z,101944.97
2022-08-11T19:14:43.573Z,101944.97
2022-08-11T19:18:05.994Z,101942.97
2022-08-11T19:21:29.699Z,101951.94
2022-08-11T19:24:52.833Z,101953.66
2022-08-11T19:28:16.196Z,101962.66
2022-08-11T19:31:43.813Z,101956.16
2022-08-11T19:35:07.644Z,101951.44
2022-08-11T19:38:29.625Z,101951.44
2022-08-11T19:41:57.022Z,101955.88
2022-08-11T19:45:21.552Z,101964.31
2022-08-11T19:48:44.662Z,101967.09
2022-08-11T19:52:06.723Z,101952.53
2022-08-11T19:55:31.155Z,101948.59
2022-08-11T19:58:54.983Z,101959.84
2022-08-11T20:02:17.694Z,101962.91
2022-08-11T20:05:39.950Z,101957.59
2022-08-11T20:09:20.182Z,101964.31
2022-08-11T20:12:44.750Z,101968.25
2022-08-11T20:16:08.574Z,101964.88
2022-08-11T20:19:56.531Z,101963.16
2022-08-11T20:23:18.339Z,101971.88
2022-08-11T20:26:41.354Z,101968.78
2022-08-11T20:30:06.017Z,101963.75
2022-08-11T20:33:29.623Z,101975.78
2022-08-11T20:36:54.878Z,101970.47
2022-08-11T20:40:23.554Z,101974.09
2022-08-11T20:44:06.610Z,101974.38
2022-08-11T20:47:30.574Z,101979.41
2022-08-11T20:50:53.363Z,101978.28
2022-08-11T20:54:17.130Z,101977.44
2022-08-11T20:58:04.986Z,101978.22
2022-08-11T21:01:38.367Z,101984.94
2022-08-11T21:05:00.695Z,101982.69
2022-08-11T21:08:25.536Z,101974.84
2022-08-11T21:11:48.906Z,101977.94
2022-08-11T21:15:13.708Z,101981.00
2022-08-11T21:18:36.978Z,101984.09
2022-08-11T21:22:03.814Z,101988.59
2022-08-11T21:25:28.454Z,101987.16
2022-08-11T21:28:53.684Z,101988.81
2022-08-11T21:32:17.205Z,101986.84
2022-08-11T21:35:45.164Z,101988.81
2022-08-11T21:39:08.316Z,101992.44
2022-08-11T21:42:30.374Z,101992.13
2022-08-11T21:45:55.391Z,102004.72
2022-08-11T21:49:18.348Z,101992.13
2022-08-11T21:52:40.132Z,101998.25
2022-08-11T21:56:02.019Z,101996.00
2022-08-11T21:59:25.005Z,102002.16
2022-08-11T22:02:53.559Z,102001.59
2022-08-11T22:06:16.228Z,101997.09
2022-08-11T22:09:37.732Z,102003.25
2022-08-11T22:12:59.280Z,101997.09
2022-08-11T22:16:20.738Z,102004.34
2022-08-11T22:19:43.407Z,102000.94
2022-08-11T22:23:05.969Z,102000.38
2022-08-11T22:26:31.004Z,102006.25
2022-08-11T22:29:53.565Z,101997.53
2022-08-11T22:33:17.584Z,101998.66
2022-08-11T22:36:48.849Z,101992.19
2022-08-11T22:40:10.821Z,101994.44
2022-08-11T22:43:32.033Z,101991.06
2022-08-11T22:46:54.688Z,101996.34
2022-08-11T22:50:17.244Z,101992.97
2022-08-11T22:53:57.164Z,102002.47
2022-08-11T22:57:20.278Z,101999.13
2022-08-11T23:00:41.991Z,101999.66
2022-08-11T23:04:06.134Z,102005.78
2022-08-11T23:07:51.216Z,102009.69
2022-08-11T23:11:11.437Z,101995.09
2022-08-11T23:14:33.565Z,102000.41
2022-08-11T23:17:55.589Z,102000.69
2022-08-11T23:21:17.562Z,102004.59
2022-08-11T23:24:39.646Z,102001.22
2022-08-11T23:28:02.993Z,102015.22
2022-08-11T23:31:28.099Z,102006.22
2022-08-11T23:35:39.170Z,102010.16
2022-08-11T23:38:55.692Z,102008.16
2022-08-11T23:42:16.691Z,102002.25
2022-08-11T23:45:39.863Z,101997.19
2022-08-11T23:49:01.373Z,102009.75
2022-08-11T23:52:24.882Z,102001.63
2022-08-11T23:55:46.766Z,102003.88
2022-08-11T23:59:09.141Z,102003.88
